createdAt,value
2022-08-25T00:02:24.810Z,19.75
2022-08-25T00:07:48.658Z,19.68
2022-08-25T00:13:11.879Z,19.62
2022-08-25T00:18:34.326Z,19.63
2022-08-25T00:23:57.402Z,19.64
2022-08-25T00:29:20.604Z,19.65
2022-08-25T00:34:46.611Z,19.54
2022-08-25T00:40:08.920Z,19.43
2022-08-25T00:45:31.761Z,19.55
2022-08-25T00:50:54.140Z,19.63
2022-08-25T00:56:17.728Z,19.72
2022-08-25T01:01:45.103Z,19.73
2022-08-25T01:07:10.264Z,19.69
2022-08-25T01:12:33.604Z,19.63
2022-08-25T01:18:03.372Z,19.58
2022-08-25T01:23:25.779Z,19.52
2022-08-25T01:29:07.598Z,19.51
2022-08-25T01:34:32.426Z,19.48
2022-08-25T01:39:56.003Z,19.42
2022-08-25T01:45:19.436Z,19.42
2022-08-25T01:50:42.483Z,19.34
2022-08-25T01:56:06.504Z,19.28
2022-08-25T02:01:33.978Z,19.21
2022-08-25T02:06:57.258Z,19.16
2022-08-25T02:12:20.615Z,19.13
2022-08-25T02:17:45.485Z,19.16
2022-08-25T02:23:09.316Z,19.15
2022-08-25T02:28:32.004Z,19.13
2022-08-25T02:33:55.405Z,19.07
2022-08-25T02:39:19.564Z,19.13
2022-08-25T02:44:42.408Z,19.19
2022-08-25T02:50:04.887Z,19.23
2022-08-25T02:55:29.626Z,19.25
2022-08-25T03:00:54.452Z,19.19
2022-08-25T03:06:17.122Z,19.13
2022-08-25T03:11:40.713Z,19.08
2022-08-25T03:17:03.637Z,19.00
2022-08-25T03:22:28.185Z,18.99
2022-08-25T03:27:52.323Z,18.93
2022-08-25T03:33:15.182Z,18.93
2022-08-25T03:38:38.635Z,18.89
2022-08-25T03:44:01.832Z,18.83
2022-08-25T03:49:29.921Z,18.74
2022-08-25T03:54:52.962Z,18.66
2022-08-25T04:00:16.379Z,18.63
2022-08-25T04:05:40.439Z,18.55
2022-08-25T04:11:02.890Z,18.54
2022-08-25T04:16:36.420Z,18.53
2022-08-25T04:22:00.114Z,18.58
2022-08-25T04:27:23.343Z,18.64
2022-08-25T04:32:46.078Z,18.70
2022-08-25T04:38:08.869Z,18.81
2022-08-25T04:43:31.804Z,18.92
2022-08-25T04:48:55.225Z,19.01
2022-08-25T04:59:53.660Z,19.41
2022-08-25T05:05:16.842Z,19.47
2022-08-25T05:10:39.821Z,19.53
2022-08-25T05:16:06.526Z,19.62
2022-08-25T05:21:35.013Z,19.66
2022-08-25T05:26:57.564Z,19.69
2022-08-25T05:32:20.944Z,19.85
2022-08-25T05:37:43.456Z,20.00
2022-08-25T05:43:05.692Z,20.15
2022-08-25T05:48:28.453Z,20.08
2022-08-25T05:53:53.554Z,19.99
2022-08-25T05:59:16.223Z,19.95
2022-08-25T06:04:41.163Z,20.04
2022-08-25T06:10:03.631Z,20.23
2022-08-25T06:15:29.267Z,20.19
2022-08-25T06:20:51.466Z,20.28
2022-08-25T06:26:20.709Z,20.33
2022-08-25T06:31:39.405Z,20.55
2022-08-25T06:37:02.018Z,20.78
2022-08-25T06:42:25.336Z,20.70
2022-08-25T06:47:47.645Z,20.55
2022-08-25T06:53:10.183Z,20.49
2022-08-25T06:58:32.436Z,20.50
2022-08-25T07:04:01.572Z,20.54
2022-08-25T07:09:26.227Z,20.69
2022-08-25T07:15:10.085Z,20.97
2022-08-25T07:20:19.253Z,21.38
2022-08-25T07:25:42.357Z,21.78
2022-08-25T07:31:05.093Z,22.09
2022-08-25T07:36:29.096Z,22.40
2022-08-25T07:41:53.322Z,22.47
2022-08-25T07:47:16.514Z,22.89
2022-08-25T07:52:39.173Z,22.98
2022-08-25T07:58:02.711Z,23.02
2022-08-25T08:03:44.748Z,22.90
2022-08-25T08:08:54.765Z,22.90
2022-08-25T08:14:18.865Z,23.10
2022-08-25T08:19:45.123Z,23.20
2022-08-25T08:25:10.572Z,23.25
2022-08-25T08:30:32.693Z,23.27
2022-08-25T08:35:54.994Z,23.25
2022-08-25T08:42:11.484Z,23.12
2022-08-25T08:48:12.729Z,23.18
2022-08-25T08:53:47.428Z,23.38
2022-08-25T08:59:33.340Z,23.67
2022-08-25T09:05:01.603Z,23.87
2022-08-25T09:10:25.729Z,24.08
2022-08-25T09:16:20.377Z,24.17
2022-08-25T09:21:59.085Z,23.91
2022-08-25T09:27:44.634Z,23.98
2022-08-25T09:33:10.208Z,24.33
2022-08-25T09:38:36.559Z,24.56
2022-08-25T09:44:07.634Z,24.86
2022-08-25T09:49:35.015Z,25.00
2022-08-25T09:54:58.910Z,26.10
2022-08-25T10:00:43.346Z,27.07
2022-08-25T10:06:21.197Z,27.05
2022-08-25T10:11:57.436Z,26.41
2022-08-25T10:17:39.940Z,26.88
2022-08-25T10:23:17.186Z,26.72
2022-08-25T10:28:50.084Z,27.55
2022-08-25T10:34:26.928Z,27.94
2022-08-25T10:40:13.708Z,28.41
2022-08-25T10:45:48.667Z,27.59
2022-08-25T10:51:44.616Z,26.09
2022-08-25T10:57:43.925Z,25.71
2022-08-25T11:03:35.263Z,26.00
2022-08-25T11:09:17.682Z,27.79
2022-08-25T11:14:45.259Z,29.35
2022-08-25T11:20:19.124Z,29.64
2022-08-25T11:25:51.320Z,30.03
2022-08-25T11:31:17.737Z,30.84
2022-08-25T11:36:44.273Z,31.12
2022-08-25T11:42:48.022Z,30.83
2022-08-25T11:48:38.472Z,30.95
2022-08-25T11:54:21.893Z,31.15
2022-08-25T12:00:13.345Z,31.27
2022-08-25T12:06:25.594Z,31.64
2022-08-25T12:12:03.761Z,31.40
2022-08-25T12:17:45.735Z,31.52
2022-08-25T12:23:14.935Z,32.23
2022-08-25T12:29:16.926Z,31.83
2022-08-25T12:35:10.641Z,32.10
2022-08-25T12:40:43.135Z,32.19
2022-08-25T12:46:29.988Z,31.37
2022-08-25T12:52:02.369Z,32.01
2022-08-25T12:57:45.430Z,32.87
2022-08-25T13:03:54.457Z,31.83
2022-08-25T13:09:47.808Z,31.59
2022-08-25T13:15:16.285Z,31.56
2022-08-25T13:20:45.728Z,32.04
2022-08-25T13:26:11.105Z,32.98
2022-08-25T13:31:35.047Z,32.49
2022-08-25T13:37:24.750Z,32.19
2022-08-25T13:42:54.024Z,32.43
2022-08-25T13:48:21.153Z,33.11
2022-08-25T13:53:38.676Z,32.82
2022-08-25T13:59:01.824Z,32.11
2022-08-25T14:04:51.589Z,32.95
2022-08-25T14:10:22.224Z,32.31
2022-08-25T14:15:46.323Z,32.09
2022-08-25T14:21:17.104Z,32.07
2022-08-25T14:26:54.547Z,33.15
2022-08-25T14:32:06.057Z,32.79
2022-08-25T14:37:35.829Z,32.29
2022-08-25T14:43:00.302Z,32.63
2022-08-25T14:48:29.077Z,32.33
2022-08-25T14:53:53.011Z,32.58
2022-08-25T14:59:16.213Z,32.32
2022-08-25T15:04:42.500Z,31.06
2022-08-25T15:10:06.950Z,31.36
2022-08-25T15:15:31.299Z,31.13
2022-08-25T15:20:54.446Z,31.32
2022-08-25T15:26:17.306Z,30.68
2022-08-25T15:31:40.272Z,31.55
2022-08-25T15:37:06.114Z,31.86
2022-08-25T15:42:30.121Z,31.54
2022-08-25T15:47:54.116Z,31.89
2022-08-25T15:53:16.705Z,31.33
2022-08-25T15:58:40.124Z,31.74
2022-08-25T16:04:04.599Z,31.48
2022-08-25T16:09:27.770Z,31.21
2022-08-25T16:14:53.196Z,31.14
2022-08-25T16:20:17.812Z,30.94
2022-08-25T16:25:43.643Z,30.40
2022-08-25T16:31:08.600Z,30.49
2022-08-25T16:36:34.656Z,30.25
2022-08-25T16:41:57.233Z,29.78
2022-08-25T16:47:20.293Z,29.21
2022-08-25T16:52:49.194Z,28.55
2022-08-25T16:58:25.991Z,28.42
2022-08-25T17:03:49.539Z,28.36
2022-08-25T17:09:13.248Z,27.92
2022-08-25T17:14:37.230Z,27.68
2022-08-25T17:20:00.320Z,27.47
2022-08-25T17:25:24.601Z,27.00
2022-08-25T17:30:51.230Z,26.62
2022-08-25T17:36:17.403Z,26.13
2022-08-25T17:41:40.686Z,25.85
2022-08-25T17:47:03.961Z,25.52
2022-08-25T17:52:27.092Z,25.24
2022-08-25T17:57:50.613Z,24.98
2022-08-25T18:03:13.343Z,24.80
2022-08-25T18:08:36.782Z,24.66
2022-08-25T18:14:01.261Z,24.53
2022-08-25T18:19:23.443Z,24.38
2022-08-25T18:24:46.693Z,24.16
2022-08-25T18:30:09.541Z,24.01
2022-08-25T18:35:32.005Z,23.88
2022-08-25T18:40:54.675Z,23.66
2022-08-25T18:46:19.040Z,23.58
2022-08-25T18:51:43.424Z,23.43
2022-08-25T18:57:08.864Z,23.21
2022-08-25T19:02:31.393Z,23.10
2022-08-25T19:07:54.872Z,23.00
2022-08-25T19:13:17.608Z,22.89
2022-08-25T19:18:42.049Z,22.72
2022-08-25T19:24:07.127Z,22.60
2022-08-25T19:29:31.845Z,22.49
2022-08-25T19:34:58.864Z,22.34
2022-08-25T19:40:22.139Z,22.26
2022-08-25T19:45:45.939Z,22.18
2022-08-25T19:51:09.473Z,21.99
2022-08-25T19:56:35.026Z,21.90
2022-08-25T20:01:58.897Z,21.78
2022-08-25T20:07:23.868Z,21.71
2022-08-25T20:12:47.094Z,21.60
2022-08-25T20:18:09.340Z,21.49
2022-08-25T20:23:49.975Z,21.37
2022-08-25T20:29:13.170Z,21.28
2022-08-25T20:34:36.796Z,21.18
2022-08-25T20:40:00.141Z,21.10
2022-08-25T20:45:25.969Z,21.04
2022-08-25T20:50:57.261Z,20.97
2022-08-25T20:56:14.189Z,20.87
2022-08-25T21:01:41.521Z,20.68
2022-08-25T21:07:06.349Z,20.59
2022-08-25T21:12:29.909Z,20.57
2022-08-25T21:17:54.702Z,20.54
2022-08-25T21:23:26.886Z,20.58
2022-08-25T21:28:49.741Z,20.44
2022-08-25T21:34:13.768Z,20.37
2022-08-25T21:39:37.850Z,20.34
2022-08-25T21:45:00.124Z,20.31
2022-08-25T21:50:25.855Z,20.33
2022-08-25T21:55:51.148Z,20.34
2022-08-25T22:01:21.655Z,20.32
2022-08-25T22:06:45.598Z,20.34
2022-08-25T22:12:09.887Z,20.33
2022-08-25T22:17:32.074Z,20.37
2022-08-25T22:22:54.732Z,20.37
2022-08-25T22:28:17.713Z,20.33
2022-08-25T22:33:40.337Z,20.34
2022-08-25T22:39:04.214Z,20.33
2022-08-25T22:44:26.381Z,20.26
2022-08-25T22:49:49.228Z,20.20
2022-08-25T22:55:12.849Z,20.16
2022-08-25T23:00:35.719Z,20.13
2022-08-25T23:05:58.698Z,20.02
2022-08-25T23:11:22.854Z,20.03
2022-08-25T23:16:46.590Z,19.99
2022-08-25T23:22:12.997Z,19.91
2022-08-25T23:27:39.264Z,19.86
2022-08-25T23:33:01.973Z,19.85
2022-08-25T23:38:24.830Z,19.85
2022-08-25T23:43:49.845Z,19.83
2022-08-25T23:49:13.897Z,19.82
2022-08-25T23:54:37.129Z,19.85
2022-08-25T23:59:59.355Z,19.86
